Time;durP1;ratioP1;P1;durP2;ratioP2;P2;SDS_P1;SDS_P2;PMS_P1;PMS_P2;Temp;Humidity;BMP_temperature;BMP_pressure;BME280_temperature;BME280_humidity;BME280_pressure;Samples;Min_cycle;Max_cycle;Signal;HPM_P1;HPM_P2
2022/10/23 00:02:23;;;;;;;37.15;18.10;;;;;;;;;;6209174;23;20025;-61
2022/10/23 00:04:56;;;;;;;35.58;17.52;;;;;;;;;;6208056;23;20021;-62
2022/10/23 00:07:24;;;;;;;32.97;17.08;;;;;;;;;;6207714;23;20048;-62
2022/10/23 00:09:57;;;;;;;24.77;15.70;;;;;;;;;;6209213;23;20071;-63
2022/10/23 00:12:26;;;;;;;32.97;16.55;;;;;;;;;;6210162;23;20103;-61
2022/10/23 00:15:00;;;;;;;32.20;17.02;;;;;;;;;;6208076;23;20026;-52
2022/10/23 00:17:31;;;;;;;32.78;18.27;;;;;;;;;;6182424;23;20032;-63
2022/10/23 00:20:12;;;;;;;39.42;18.88;;;;;;;;;;6208891;23;20415;-62
2022/10/23 00:22:46;;;;;;;31.60;17.83;;;;;;;;;;6208223;23;20103;-62
2022/10/23 00:25:20;;;;;;;39.88;18.92;;;;;;;;;;6209622;23;20123;-62
2022/10/23 00:27:48;;;;;;;28.48;17.25;;;;;;;;;;6207767;23;20020;-62
2022/10/23 00:30:15;;;;;;;46.28;20.08;;;;;;;;;;6182200;23;20031;-64
2022/10/23 00:32:48;;;;;;;36.47;19.63;;;;;;;;;;6208921;23;20403;-56
2022/10/23 00:35:16;;;;;;;42.72;21.25;;;;;;;;;;6208880;23;20063;-49
2022/10/23 00:37:50;;;;;;;53.90;21.65;;;;;;;;;;6184154;23;20030;-51
2022/10/23 00:40:17;;;;;;;50.08;21.52;;;;;;;;;;6208968;23;20020;-51
2022/10/23 00:42:44;;;;;;;37.53;19.35;;;;;;;;;;6208535;23;20116;-50
2022/10/23 00:45:25;;;;;;;33.15;18.40;;;;;;;;;;6208875;23;20537;-52
2022/10/23 00:47:53;;;;;;;32.80;17.98;;;;;;;;;;6209219;23;20469;-51
2022/10/23 00:50:28;;;;;;;39.72;20.20;;;;;;;;;;6209345;23;20027;-64
2022/10/23 00:52:56;;;;;;;38.40;20.25;;;;;;;;;;6207863;23;20359;-52
2022/10/23 00:55:30;;;;;;;55.17;23.27;;;;;;;;;;6208212;23;20478;-49
2022/10/23 00:57:57;;;;;;;46.97;22.33;;;;;;;;;;6209077;23;20100;-49
2022/10/23 01:00:40;;;;;;;41.25;20.55;;;;;;;;;;6209038;23;20124;-49
2022/10/23 01:03:08;;;;;;;46.35;21.75;;;;;;;;;;6209414;23;20024;-49
2022/10/23 01:05:53;;;;;;;40.05;20.50;;;;;;;;;;6208714;23;20031;-49
2022/10/23 01:08:28;;;;;;;40.40;19.42;;;;;;;;;;6207832;23;20024;-48
2022/10/23 01:11:08;;;;;;;37.58;20.13;;;;;;;;;;6208717;23;20020;-60
2022/10/23 01:13:54;;;;;;;35.83;19.48;;;;;;;;;;6208806;23;20020;-50
2022/10/23 01:16:44;;;;;;;35.67;18.88;;;;;;;;;;6208726;23;20026;-50
2022/10/23 01:19:11;;;;;;;;;;;;;;;;;;6209785;23;20033;-51
2022/10/23 01:21:51;;;;;;;47.78;20.42;;;;;;;;;;6207865;23;19926;-51
2022/10/23 01:24:31;;;;;;;35.50;18.95;;;;;;;;;;6207893;23;20023;-53
2022/10/23 01:27:23;;;;;;;39.70;20.67;;;;;;;;;;6208041;23;20659;-51
2022/10/23 01:30:07;;;;;;;35.42;19.67;;;;;;;;;;6207604;23;20016;-57
2022/10/23 01:32:42;;;;;;;43.17;19.35;;;;;;;;;;6208225;23;20101;-57
2022/10/23 01:35:09;;;;;;;;;;;;;;;;;;6209126;23;20486;-58
2022/10/23 01:37:42;;;;;;;25.45;15.98;;;;;;;;;;6209565;23;19926;-57
2022/10/23 01:40:22;;;;;;;30.80;16.77;;;;;;;;;;6209881;23;20096;-58
2022/10/23 01:42:52;;;;;;;45.08;20.45;;;;;;;;;;6208468;23;20021;-58
2022/10/23 01:45:33;;;;;;;40.10;20.25;;;;;;;;;;6208385;23;20016;-57
2022/10/23 01:48:02;;;;;;;38.00;19.85;;;;;;;;;;6208757;23;20017;-61
2022/10/23 01:50:36;;;;;;;25.80;17.10;;;;;;;;;;6208628;23;20024;-63
2022/10/23 01:53:04;;;;;;;40.83;20.00;;;;;;;;;;6207571;23;20074;-59
2022/10/23 01:55:39;;;;;;;35.67;19.02;;;;;;;;;;6206545;23;20027;-60
2022/10/23 01:58:12;;;;;;;32.97;17.95;;;;;;;;;;6208833;23;20020;-59
2022/10/23 02:00:46;;;;;;;38.45;19.75;;;;;;;;;;6183413;23;20024;-59
2022/10/23 02:03:15;;;;;;;26.10;16.67;;;;;;;;;;6207472;23;20035;-59
2022/10/23 02:05:43;;;;;;;26.65;16.73;;;;;;;;;;6208589;23;20059;-60
2022/10/23 02:08:17;;;;;;;26.48;16.38;;;;;;;;;;6183191;23;20016;-50
2022/10/23 02:11:10;;;;;;;33.88;17.05;;;;;;;;;;6206633;23;20362;-59
2022/10/23 02:13:49;;;;;;;26.48;15.13;;;;;;;;;;6208949;23;20021;-59
2022/10/23 02:16:42;;;;;;;29.77;16.02;;;;;;;;;;6208997;23;20714;-60
2022/10/23 02:19:12;;;;;;;26.30;15.38;;;;;;;;;;6209672;23;20028;-60
2022/10/23 02:22:14;;;;;;;24.73;15.37;;;;;;;;;;6207181;23;20016;-59
2022/10/23 02:24:52;;;;;;;26.13;15.18;;;;;;;;;;6207662;23;20016;-59
2022/10/23 02:27:31;;;;;;;27.90;15.80;;;;;;;;;;6207493;23;20420;-59
2022/10/23 02:30:04;;;;;;;28.98;15.77;;;;;;;;;;6207608;23;20280;-59
2022/10/23 02:32:40;;;;;;;35.42;16.48;;;;;;;;;;6208845;23;20550;-59
2022/10/23 02:35:08;;;;;;;23.98;15.02;;;;;;;;;;6208708;23;20024;-59
2022/10/23 02:37:35;;;;;;;30.52;15.15;;;;;;;;;;6208224;23;20504;-59
2022/10/23 02:40:10;;;;;;;29.88;16.63;;;;;;;;;;6210571;23;20469;-59
2022/10/23 02:43:06;;;;;;;29.70;15.13;;;;;;;;;;6210727;23;20027;-59
2022/10/23 02:45:44;;;;;;;34.08;16.92;;;;;;;;;;6209032;23;20017;-49
2022/10/23 02:48:22;;;;;;;36.67;16.95;;;;;;;;;;6210265;23;20103;-60
2022/10/23 02:50:53;;;;;;;47.15;19.25;;;;;;;;;;6209870;23;20095;-59
2022/10/23 02:53:26;;;;;;;48.28;19.42;;;;;;;;;;6209986;23;20021;-60
2022/10/23 02:55:57;;;;;;;49.97;19.63;;;;;;;;;;6210041;23;20021;-60
2022/10/23 02:58:44;;;;;;;56.83;19.98;;;;;;;;;;6210182;23;20128;-60
2022/10/23 03:01:20;;;;;;;62.10;20.55;;;;;;;;;;6209637;23;20406;-59
2022/10/23 03:03:51;;;;;;;67.82;21.88;;;;;;;;;;6210948;23;20079;-60
2022/10/23 03:06:25;;;;;;;132.93;26.70;;;;;;;;;;6210261;23;20024;-49
2022/10/23 03:08:53;;;;;;;126.97;25.15;;;;;;;;;;6210102;23;20027;-60
2022/10/23 03:11:26;;;;;;;145.75;27.90;;;;;;;;;;6211125;23;20017;-59
2022/10/23 03:13:54;;;;;;;85.35;23.10;;;;;;;;;;6208227;23;20020;-59
2022/10/23 03:16:28;;;;;;;93.93;25.55;;;;;;;;;;6211205;23;20016;-60
2022/10/23 03:18:55;;;;;;;83.32;24.52;;;;;;;;;;6210954;23;20027;-60
2022/10/23 03:21:22;;;;;;;96.85;25.45;;;;;;;;;;6209233;23;20027;-60
2022/10/23 03:24:02;;;;;;;84.80;24.00;;;;;;;;;;6209043;23;20359;-65
2022/10/23 03:26:29;;;;;;;100.28;24.42;;;;;;;;;;6209098;23;20017;-60
2022/10/23 03:29:04;;;;;;;97.25;25.05;;;;;;;;;;6209903;23;20024;-59
2022/10/23 03:31:31;;;;;;;90.63;25.40;;;;;;;;;;6209279;23;20017;-59
2022/10/23 03:33:58;;;;;;;96.57;25.23;;;;;;;;;;6209846;23;20070;-59
2022/10/23 03:36:34;;;;;;;104.47;25.75;;;;;;;;;;6208808;23;20120;-59
2022/10/23 03:39:02;;;;;;;75.82;24.35;;;;;;;;;;6207728;23;20040;-59
2022/10/23 03:41:37;;;;;;;92.43;25.63;;;;;;;;;;6210547;23;20091;-60
2022/10/23 03:44:04;;;;;;;80.70;24.45;;;;;;;;;;6207990;23;20269;-60
2022/10/23 03:46:36;;;;;;;95.28;25.38;;;;;;;;;;6209194;23;20039;-58
2022/10/23 03:49:10;;;;;;;96.38;24.23;;;;;;;;;;6185967;23;20027;-56
2022/10/23 03:51:40;;;;;;;108.85;23.67;;;;;;;;;;6210548;23;20411;-58
2022/10/23 03:54:14;;;;;;;88.45;23.15;;;;;;;;;;6208966;23;20108;-57
2022/10/23 03:56:41;;;;;;;117.32;27.05;;;;;;;;;;6209362;23;20557;-58
2022/10/23 03:59:14;;;;;;;106.00;23.50;;;;;;;;;;6209215;23;20549;-58
2022/10/23 04:01:48;;;;;;;95.05;24.52;;;;;;;;;;6207935;23;20492;-59
2022/10/23 04:04:15;;;;;;;129.48;26.52;;;;;;;;;;6208628;23;20028;-62
2022/10/23 04:06:42;;;;;;;106.93;25.73;;;;;;;;;;6209406;23;20484;-63
2022/10/23 04:09:16;;;;;;;122.18;27.67;;;;;;;;;;6209554;23;20028;-63
2022/10/23 04:11:49;;;;;;;115.25;26.88;;;;;;;;;;6209414;23;20017;-64
2022/10/23 04:14:24;;;;;;;104.07;27.38;;;;;;;;;;6207189;23;20528;-63
2022/10/23 04:16:51;;;;;;;139.07;27.73;;;;;;;;;;6210515;23;20024;-63
2022/10/23 04:19:18;;;;;;;113.07;26.25;;;;;;;;;;6207248;23;20028;-64
2022/10/23 04:21:58;;;;;;;146.35;29.55;;;;;;;;;;6208027;23;20016;-56
2022/10/23 04:24:32;;;;;;;127.60;25.38;;;;;;;;;;6210368;23;20415;-60
2022/10/23 04:27:06;;;;;;;136.93;26.17;;;;;;;;;;6208148;23;20512;-60
2022/10/23 04:29:34;;;;;;;121.57;24.63;;;;;;;;;;6209490;23;20504;-60
2022/10/23 04:32:01;;;;;;;123.50;26.60;;;;;;;;;;6209653;23;20035;-60
2022/10/23 04:34:35;;;;;;;96.60;22.80;;;;;;;;;;6208174;23;20016;-59
2022/10/23 04:37:02;;;;;;;85.40;20.23;;;;;;;;;;6209229;23;20521;-60
2022/10/23 04:39:29;;;;;;;80.25;19.83;;;;;;;;;;6209287;23;20477;-60
2022/10/23 04:42:03;;;;;;;87.60;22.48;;;;;;;;;;6208633;23;20020;-62
2022/10/23 04:44:30;;;;;;;67.18;19.50;;;;;;;;;;6207442;23;20421;-63
2022/10/23 04:47:04;;;;;;;73.55;20.08;;;;;;;;;;6210040;23;20091;-63
2022/10/23 04:49:31;;;;;;;71.97;18.85;;;;;;;;;;6208306;23;20024;-63
2022/10/23 04:51:58;;;;;;;59.47;17.70;;;;;;;;;;6209267;23;20050;-63
2022/10/23 04:54:38;;;;;;;71.18;18.90;;;;;;;;;;6183741;23;20352;-63
2022/10/23 04:57:05;;;;;;;85.80;21.52;;;;;;;;;;6209838;23;20112;-63
2022/10/23 04:59:40;;;;;;;75.00;20.50;;;;;;;;;;6209662;23;20035;-60
2022/10/23 05:02:07;;;;;;;61.40;18.10;;;;;;;;;;6208134;23;20095;-55
2022/10/23 05:04:34;;;;;;;66.38;17.88;;;;;;;;;;6207321;23;20027;-57
2022/10/23 05:07:08;;;;;;;51.45;17.63;;;;;;;;;;6209781;23;20070;-58
2022/10/23 05:09:35;;;;;;;59.67;17.45;;;;;;;;;;6209074;23;20028;-56
2022/10/23 05:12:09;;;;;;;57.92;17.65;;;;;;;;;;6208309;23;20059;-58
2022/10/23 05:14:36;;;;;;;47.60;15.90;;;;;;;;;;6209421;23;20025;-58
2022/10/23 05:17:15;;;;;;;55.92;15.90;;;;;;;;;;6208908;23;20023;-61
2022/10/23 05:20:03;;;;;;;39.15;15.20;;;;;;;;;;6208683;23;20030;-51
2022/10/23 05:22:37;;;;;;;;;;;;;;;;;;6180356;23;20347;-60
2022/10/23 05:25:11;;;;;;;35.22;13.00;;;;;;;;;;6178872;23;19994;-60
2022/10/23 05:27:38;;;;;;;36.53;13.02;;;;;;;;;;6179666;23;20092;-60
2022/10/23 05:30:13;;;;;;;30.45;13.68;;;;;;;;;;6178173;23;20027;-60
2022/10/23 05:32:40;;;;;;;30.98;12.88;;;;;;;;;;6178633;23;20485;-59
2022/10/23 05:35:10;;;;;;;27.02;11.95;;;;;;;;;;6178959;23;20336;-60
2022/10/23 05:37:45;;;;;;;23.52;11.50;;;;;;;;;;6178241;23;20017;-61
2022/10/23 05:40:13;;;;;;;28.83;11.68;;;;;;;;;;6179656;23;20029;-53
2022/10/23 05:42:47;;;;;;;27.00;12.90;;;;;;;;;;6177796;23;20018;-52
2022/10/23 05:45:14;;;;;;;22.10;11.07;;;;;;;;;;6179589;23;20063;-48
2022/10/23 05:47:43;;;;;;;25.90;11.77;;;;;;;;;;6178447;23;20024;-48
2022/10/23 05:50:17;;;;;;;20.67;10.95;;;;;;;;;;6178930;23;20025;-52
2022/10/23 05:52:48;;;;;;;25.13;10.98;;;;;;;;;;6178448;23;20363;-48
2022/10/23 05:55:21;;;;;;;21.98;10.55;;;;;;;;;;6178939;23;20021;-62
2022/10/23 05:57:49;;;;;;;19.33;9.00;;;;;;;;;;6178588;23;20493;-60
2022/10/23 06:00:23;;;;;;;19.55;9.18;;;;;;;;;;6179131;23;20039;-61
2022/10/23 06:02:50;;;;;;;18.05;9.80;;;;;;;;;;6176065;23;20017;-61
2022/10/23 06:05:17;;;;;;;18.13;9.20;;;;;;;;;;6178338;23;20553;-60
2022/10/23 06:07:50;;;;;;;15.70;7.80;;;;;;;;;;6178695;23;20024;-61
2022/10/23 06:10:18;;;;;;;13.93;7.03;;;;;;;;;;6178486;23;20112;-60
2022/10/23 06:12:51;;;;;;;12.93;7.65;;;;;;;;;;6179419;23;20346;-60
2022/10/23 06:15:19;;;;;;;10.73;6.38;;;;;;;;;;6181168;23;20532;-61
2022/10/23 06:17:46;;;;;;;10.32;6.47;;;;;;;;;;6180545;23;20021;-59
2022/10/23 06:20:32;;;;;;;11.73;6.57;;;;;;;;;;6185129;23;20035;-59
2022/10/23 06:23:07;;;;;;;11.02;6.53;;;;;;;;;;6180165;23;20411;-59
2022/10/23 06:25:41;;;;;;;12.23;6.72;;;;;;;;;;6178981;23;20350;-60
2022/10/23 06:28:08;;;;;;;8.57;5.65;;;;;;;;;;6178294;23;20021;-60
2022/10/23 06:30:38;;;;;;;12.07;6.88;;;;;;;;;;6181576;23;20027;-59
2022/10/23 06:33:11;;;;;;;11.38;6.63;;;;;;;;;;6179363;23;20359;-61
2022/10/23 06:35:39;;;;;;;8.90;6.18;;;;;;;;;;6181739;23;20104;-58
2022/10/23 06:38:12;;;;;;;8.88;5.68;;;;;;;;;;6178648;23;20020;-51
2022/10/23 06:40:40;;;;;;;10.05;5.72;;;;;;;;;;6179106;23;20641;-50
2022/10/23 06:43:07;;;;;;;7.78;4.93;;;;;;;;;;6178576;23;20469;-53
2022/10/23 06:45:42;;;;;;;6.57;4.93;;;;;;;;;;6179026;23;20020;-48
2022/10/23 06:48:09;;;;;;;7.45;4.68;;;;;;;;;;6177289;23;20028;-52
2022/10/23 06:50:43;;;;;;;8.02;4.75;;;;;;;;;;6180005;23;20017;-53
2022/10/23 06:53:11;;;;;;;;;;;;;;;;;;6180426;23;20096;-52
2022/10/23 06:55:41;;;;;;;6.75;4.88;;;;;;;;;;6178486;23;19920;-59
2022/10/23 06:58:21;;;;;;;9.65;4.93;;;;;;;;;;6180372;23;20017;-61
2022/10/23 07:00:48;;;;;;;;;;;;;;;;;;6182346;23;20025;-61
2022/10/23 07:03:23;;;;;;;10.35;5.30;;;;;;;;;;6180599;23;19923;-61
2022/10/23 07:05:50;;;;;;;10.13;5.70;;;;;;;;;;6181035;23;20020;-61
2022/10/23 07:08:17;;;;;;;14.80;6.10;;;;;;;;;;6181376;23;20631;-61
2022/10/23 07:10:51;;;;;;;8.57;5.00;;;;;;;;;;6180244;23;20017;-61
2022/10/23 07:13:18;;;;;;;13.50;6.10;;;;;;;;;;6181627;23;20460;-50
2022/10/23 07:15:52;;;;;;;10.73;5.25;;;;;;;;;;6176018;23;20478;-61
2022/10/23 07:18:19;;;;;;;10.90;5.95;;;;;;;;;;6178402;23;20036;-62
2022/10/23 07:20:48;;;;;;;10.48;5.95;;;;;;;;;;6182362;23;20029;-62
2022/10/23 07:23:28;;;;;;;18.45;5.97;;;;;;;;;;6209411;23;20091;-62
2022/10/23 07:25:55;;;;;;;14.88;5.78;;;;;;;;;;6210878;23;20021;-62
2022/10/23 07:28:30;;;;;;;10.32;5.20;;;;;;;;;;6205277;23;20467;-61
2022/10/23 07:30:58;;;;;;;16.95;7.55;;;;;;;;;;6208055;23;20681;-59
2022/10/23 07:33:25;;;;;;;;;;;;;;;;;;6205327;23;20027;-61
2022/10/23 07:35:59;;;;;;;38.22;9.10;;;;;;;;;;6207866;23;19922;-60
2022/10/23 07:38:26;;;;;;;53.17;10.07;;;;;;;;;;6209093;23;20021;-60
2022/10/23 07:41:01;;;;;;;78.55;12.45;;;;;;;;;;6207689;23;20055;-59
2022/10/23 07:43:28;;;;;;;77.57;13.20;;;;;;;;;;6208866;23;20067;-60
2022/10/23 07:45:55;;;;;;;50.22;12.18;;;;;;;;;;6208445;23;20028;-60
2022/10/23 07:48:30;;;;;;;114.32;15.43;;;;;;;;;;6208723;23;20096;-60
2022/10/23 07:50:59;;;;;;;65.03;12.82;;;;;;;;;;6208856;23;20027;-60
2022/10/23 07:53:27;;;;;;;47.03;12.23;;;;;;;;;;6209824;23;20048;-60
2022/10/23 07:56:01;;;;;;;95.72;16.75;;;;;;;;;;6208329;23;20021;-60
2022/10/23 07:58:29;;;;;;;68.57;14.55;;;;;;;;;;6207754;23;20354;-61
2022/10/23 08:01:03;;;;;;;86.07;15.00;;;;;;;;;;6208761;23;20035;-61
2022/10/23 08:03:32;;;;;;;93.25;16.48;;;;;;;;;;6207094;23;20043;-60
2022/10/23 08:05:59;;;;;;;86.35;16.90;;;;;;;;;;6209051;23;20026;-60
2022/10/23 08:08:34;;;;;;;86.78;15.05;;;;;;;;;;6206899;23;20036;-50
2022/10/23 08:11:01;;;;;;;75.32;15.45;;;;;;;;;;6204988;23;20025;-58
2022/10/23 08:13:35;;;;;;;115.75;18.45;;;;;;;;;;6209814;23;20026;-53
2022/10/23 08:16:02;;;;;;;99.47;17.40;;;;;;;;;;6208238;23;20021;-50
2022/10/23 08:18:29;;;;;;;134.30;22.27;;;;;;;;;;6206932;23;20096;-49
2022/10/23 08:21:09;;;;;;;142.90;20.65;;;;;;;;;;6208384;23;20104;-51
2022/10/23 08:23:37;;;;;;;102.13;19.38;;;;;;;;;;6207705;23;20127;-50
2022/10/23 08:26:11;;;;;;;111.65;19.75;;;;;;;;;;6209216;23;20466;-47
2022/10/23 08:28:38;;;;;;;85.80;17.98;;;;;;;;;;6209631;23;20057;-51
2022/10/23 08:31:10;;;;;;;98.68;20.23;;;;;;;;;;6207956;23;20032;-60
2022/10/23 08:33:44;;;;;;;110.28;20.33;;;;;;;;;;6206864;23;20100;-59
2022/10/23 08:36:22;;;;;;;114.28;21.45;;;;;;;;;;6205768;23;20020;-60
2022/10/23 08:38:56;;;;;;;113.13;21.30;;;;;;;;;;6202925;23;20096;-59
2022/10/23 08:41:29;;;;;;;98.38;20.63;;;;;;;;;;6207132;23;20441;-59
2022/10/23 08:44:09;;;;;;;122.40;22.58;;;;;;;;;;6206033;23;20020;-60
2022/10/23 08:46:39;;;;;;;72.00;19.67;;;;;;;;;;6207060;23;20504;-60
2022/10/23 08:49:25;;;;;;;74.30;18.57;;;;;;;;;;6208801;23;20191;-60
2022/10/23 08:51:54;;;;;;;78.25;18.25;;;;;;;;;;6208647;23;20588;-52
2022/10/23 08:54:48;;;;;;;54.50;16.08;;;;;;;;;;6206783;23;20059;-55
2022/10/23 08:57:16;;;;;;;57.20;15.82;;;;;;;;;;6205769;23;20020;-51
2022/10/23 08:59:58;;;;;;;136.43;22.55;;;;;;;;;;6208159;23;20029;-54
2022/10/23 09:02:27;;;;;;;98.10;20.13;;;;;;;;;;6204049;23;20100;-53
2022/10/23 09:05:01;;;;;;;55.88;15.68;;;;;;;;;;6203406;23;20027;-54
2022/10/23 09:07:32;;;;;;;49.50;14.98;;;;;;;;;;6207565;23;20024;-58
2022/10/23 09:10:10;;;;;;;49.47;15.02;;;;;;;;;;6206544;23;20031;-60
2022/10/23 09:12:38;;;;;;;54.78;16.75;;;;;;;;;;6207613;23;20031;-60
2022/10/23 09:15:08;;;;;;;45.22;15.45;;;;;;;;;;6208322;23;20050;-60
2022/10/23 09:17:43;;;;;;;43.85;14.93;;;;;;;;;;6208332;23;20031;-60
2022/10/23 09:20:10;;;;;;;42.67;14.40;;;;;;;;;;6206994;23;20100;-60
2022/10/23 09:23:00;;;;;;;36.58;13.25;;;;;;;;;;6207878;23;20017;-60
2022/10/23 09:25:29;;;;;;;62.08;14.93;;;;;;;;;;6209146;23;20095;-60
2022/10/23 09:28:03;;;;;;;30.73;10.73;;;;;;;;;;6207996;23;20021;-61
2022/10/23 09:30:35;;;;;;;59.83;13.13;;;;;;;;;;6207397;23;20108;-53
2022/10/23 09:33:22;;;;;;;30.50;11.48;;;;;;;;;;6208155;23;20127;-51
2022/10/23 09:36:01;;;;;;;32.20;11.32;;;;;;;;;;6203852;23;20482;-48
2022/10/23 09:38:28;;;;;;;44.42;11.90;;;;;;;;;;6205657;23;20560;-51
2022/10/23 09:41:11;;;;;;;25.27;9.00;;;;;;;;;;6203472;23;20470;-52
2022/10/23 09:43:38;;;;;;;31.15;8.43;;;;;;;;;;6206811;23;20024;-51
2022/10/23 09:46:12;;;;;;;24.48;8.98;;;;;;;;;;6204166;23;20023;-63
2022/10/23 09:48:41;;;;;;;43.15;11.05;;;;;;;;;;6205625;23;20025;-50
2022/10/23 09:51:18;;;;;;;32.42;10.07;;;;;;;;;;6205592;23;20044;-48
2022/10/23 09:53:54;;;;;;;33.50;9.23;;;;;;;;;;6204896;23;20387;-50
2022/10/23 09:56:32;;;;;;;23.30;8.80;;;;;;;;;;6204687;23;20016;-52
2022/10/23 09:59:13;;;;;;;25.85;8.63;;;;;;;;;;6206793;23;20047;-48
2022/10/23 10:01:59;;;;;;;21.02;8.63;;;;;;;;;;6206291;23;20020;-52
2022/10/23 10:04:40;;;;;;;27.75;7.30;;;;;;;;;;6208350;23;20048;-50
2022/10/23 10:07:24;;;;;;;24.90;7.50;;;;;;;;;;6208212;23;20567;-59
2022/10/23 10:10:13;;;;;;;23.73;7.35;;;;;;;;;;6205519;23;20024;-58
2022/10/23 10:12:49;;;;;;;27.20;7.78;;;;;;;;;;6207615;23;20327;-59
2022/10/23 10:15:40;;;;;;;22.25;7.90;;;;;;;;;;6205954;23;20024;-60
2022/10/23 23:18:05;;;;;;;33.92;8.35;;;;;;;;;;6235356;22;20091;-59
2022/10/23 23:20:39;;;;;;;51.25;10.30;;;;;;;;;;6238008;23;20020;-60
2022/10/23 23:23:13;;;;;;;52.58;9.25;;;;;;;;;;6240662;23;20051;-59
2022/10/23 23:25:40;;;;;;;;;;;;;;;;;;6241029;23;20065;-60
2022/10/23 23:28:07;;;;;;;83.55;10.70;;;;;;;;;;6237831;23;20010;-60
2022/10/23 23:30:41;;;;;;;47.70;10.82;;;;;;;;;;6240796;23;20457;-61
2022/10/23 23:33:09;;;;;;;62.15;10.25;;;;;;;;;;6239880;23;20024;-60
2022/10/23 23:35:43;;;;;;;87.38;12.45;;;;;;;;;;6238510;23;20024;-61
2022/10/23 23:38:17;;;;;;;71.53;10.40;;;;;;;;;;6239928;23;20050;-60
2022/10/23 23:40:50;;;;;;;84.70;12.18;;;;;;;;;;6240429;23;20024;-60
2022/10/23 23:43:24;;;;;;;102.63;12.70;;;;;;;;;;6239181;23;20021;-48
2022/10/23 23:45:51;;;;;;;106.65;12.88;;;;;;;;;;6240426;23;20672;-60
2022/10/23 23:48:18;;;;;;;60.58;10.68;;;;;;;;;;6240099;23;20030;-60
2022/10/23 23:50:52;;;;;;;85.15;13.65;;;;;;;;;;6238778;23;20458;-60
2022/10/23 23:53:19;;;;;;;72.55;11.43;;;;;;;;;;6239540;23;20030;-60
2022/10/23 23:55:53;;;;;;;82.07;12.50;;;;;;;;;;6240068;23;20020;-60
2022/10/23 23:58:20;;;;;;;84.22;11.95;;;;;;;;;;6239159;23;20091;-60
